sensor_id;sensor_type;location;lat;lon;timestamp;P1;durP1;ratioP1;P2;durP2;ratioP2
19535;SDS011;9913;51.168;4.124;2024-03-22T00:00:48;51.17;;;30.20;;
19535;SDS011;9913;51.168;4.124;2024-03-22T00:03:15;44.67;;;27.17;;
19535;SDS011;9913;51.168;4.124;2024-03-22T00:05:42;42.77;;;27.93;;
19535;SDS011;9913;51.168;4.124;2024-03-22T00:08:09;45.30;;;28.07;;
19535;SDS011;9913;51.168;4.124;2024-03-22T00:10:36;43.27;;;26.93;;
19535;SDS011;9913;51.168;4.124;2024-03-22T00:13:03;47.60;;;28.53;;
19535;SDS011;9913;51.168;4.124;2024-03-22T00:15:31;44.73;;;28.40;;
19535;SDS011;9913;51.168;4.124;2024-03-22T00:17:58;49.70;;;29.77;;
19535;SDS011;9913;51.168;4.124;2024-03-22T00:20:25;47.17;;;28.23;;
19535;SDS011;9913;51.168;4.124;2024-03-22T00:22:52;41.67;;;27.00;;
19535;SDS011;9913;51.168;4.124;2024-03-22T00:25:19;48.53;;;27.23;;
19535;SDS011;9913;51.168;4.124;2024-03-22T00:27:45;43.47;;;26.37;;
19535;SDS011;9913;51.168;4.124;2024-03-22T00:30:13;38.97;;;25.33;;
19535;SDS011;9913;51.168;4.124;2024-03-22T00:32:41;39.90;;;25.90;;
19535;SDS011;9913;51.168;4.124;2024-03-22T00:35:10;36.60;;;23.33;;
19535;SDS011;9913;51.168;4.124;2024-03-22T00:37:36;39.40;;;23.60;;
19535;SDS011;9913;51.168;4.124;2024-03-22T00:40:04;37.50;;;23.73;;
19535;SDS011;9913;51.168;4.124;2024-03-22T00:42:31;38.53;;;24.57;;
19535;SDS011;9913;51.168;4.124;2024-03-22T00:44:58;42.33;;;23.40;;
19535;SDS011;9913;51.168;4.124;2024-03-22T00:47:25;33.77;;;22.00;;
19535;SDS011;9913;51.168;4.124;2024-03-22T00:49:53;38.00;;;23.77;;
19535;SDS011;9913;51.168;4.124;2024-03-22T00:52:20;38.07;;;24.00;;
19535;SDS011;9913;51.168;4.124;2024-03-22T00:54:47;34.07;;;22.70;;
19535;SDS011;9913;51.168;4.124;2024-03-22T00:57:13;39.43;;;24.67;;
19535;SDS011;9913;51.168;4.124;2024-03-22T00:59:41;39.50;;;23.23;;
19535;SDS011;9913;51.168;4.124;2024-03-22T01:02:07;32.73;;;22.07;;
19535;SDS011;9913;51.168;4.124;2024-03-22T01:04:34;39.83;;;23.93;;
19535;SDS011;9913;51.168;4.124;2024-03-22T01:07:02;37.33;;;23.70;;
19535;SDS011;9913;51.168;4.124;2024-03-22T01:09:29;42.23;;;25.33;;
19535;SDS011;9913;51.168;4.124;2024-03-22T01:11:56;37.87;;;22.50;;
19535;SDS011;9913;51.168;4.124;2024-03-22T01:14:23;33.50;;;22.57;;
19535;SDS011;9913;51.168;4.124;2024-03-22T01:16:50;37.77;;;23.33;;
19535;SDS011;9913;51.168;4.124;2024-03-22T01:19:17;33.27;;;21.23;;
19535;SDS011;9913;51.168;4.124;2024-03-22T01:21:43;37.13;;;23.17;;
19535;SDS011;9913;51.168;4.124;2024-03-22T01:24:12;40.03;;;25.53;;
19535;SDS011;9913;51.168;4.124;2024-03-22T01:26:38;31.20;;;20.33;;
19535;SDS011;9913;51.168;4.124;2024-03-22T01:29:05;35.20;;;21.97;;
19535;SDS011;9913;51.168;4.124;2024-03-22T01:31:32;34.30;;;22.57;;
19535;SDS011;9913;51.168;4.124;2024-03-22T01:33:59;34.57;;;20.83;;
19535;SDS011;9913;51.168;4.124;2024-03-22T01:36:25;34.13;;;20.63;;
19535;SDS011;9913;51.168;4.124;2024-03-22T01:38:52;32.33;;;19.27;;
19535;SDS011;9913;51.168;4.124;2024-03-22T01:41:21;28.67;;;18.37;;
19535;SDS011;9913;51.168;4.124;2024-03-22T01:43:47;28.07;;;17.90;;
19535;SDS011;9913;51.168;4.124;2024-03-22T01:46:15;30.70;;;18.50;;
19535;SDS011;9913;51.168;4.124;2024-03-22T01:48:41;27.50;;;17.03;;
19535;SDS011;9913;51.168;4.124;2024-03-22T01:51:08;28.60;;;16.63;;
19535;SDS011;9913;51.168;4.124;2024-03-22T01:53:36;29.37;;;16.30;;
19535;SDS011;9913;51.168;4.124;2024-03-22T01:56:05;24.63;;;15.00;;
19535;SDS011;9913;51.168;4.124;2024-03-22T01:58:34;23.80;;;15.30;;
19535;SDS011;9913;51.168;4.124;2024-03-22T02:01:01;28.67;;;15.70;;
19535;SDS011;9913;51.168;4.124;2024-03-22T02:03:28;28.33;;;16.07;;
19535;SDS011;9913;51.168;4.124;2024-03-22T02:05:55;25.93;;;16.40;;
19535;SDS011;9913;51.168;4.124;2024-03-22T02:08:21;24.83;;;15.50;;
19535;SDS011;9913;51.168;4.124;2024-03-22T02:10:49;29.97;;;15.83;;
19535;SDS011;9913;51.168;4.124;2024-03-22T02:13:15;29.00;;;17.07;;
19535;SDS011;9913;51.168;4.124;2024-03-22T02:15:44;27.10;;;16.67;;
19535;SDS011;9913;51.168;4.124;2024-03-22T02:18:10;29.73;;;17.93;;
19535;SDS011;9913;51.168;4.124;2024-03-22T02:20:37;32.90;;;19.60;;
19535;SDS011;9913;51.168;4.124;2024-03-22T02:23:04;32.20;;;18.13;;
19535;SDS011;9913;51.168;4.124;2024-03-22T02:25:32;33.97;;;18.63;;
19535;SDS011;9913;51.168;4.124;2024-03-22T02:27:59;35.37;;;18.97;;
19535;SDS011;9913;51.168;4.124;2024-03-22T02:30:26;33.90;;;18.17;;
19535;SDS011;9913;51.168;4.124;2024-03-22T02:32:52;30.00;;;17.30;;
19535;SDS011;9913;51.168;4.124;2024-03-22T02:35:20;33.60;;;19.07;;
19535;SDS011;9913;51.168;4.124;2024-03-22T02:37:46;34.17;;;19.17;;
19535;SDS011;9913;51.168;4.124;2024-03-22T02:40:13;29.00;;;17.40;;
19535;SDS011;9913;51.168;4.124;2024-03-22T02:42:41;32.90;;;19.93;;
19535;SDS011;9913;51.168;4.124;2024-03-22T02:45:08;34.57;;;20.17;;
19535;SDS011;9913;51.168;4.124;2024-03-22T02:47:35;39.83;;;22.23;;
19535;SDS011;9913;51.168;4.124;2024-03-22T02:50:02;34.63;;;20.17;;
19535;SDS011;9913;51.168;4.124;2024-03-22T02:52:28;34.13;;;19.50;;
19535;SDS011;9913;51.168;4.124;2024-03-22T02:54:56;35.83;;;19.60;;
19535;SDS011;9913;51.168;4.124;2024-03-22T02:57:22;34.63;;;19.03;;
19535;SDS011;9913;51.168;4.124;2024-03-22T02:59:51;38.00;;;20.47;;
19535;SDS011;9913;51.168;4.124;2024-03-22T03:02:17;30.63;;;17.67;;
19535;SDS011;9913;51.168;4.124;2024-03-22T03:04:44;35.13;;;20.17;;
19535;SDS011;9913;51.168;4.124;2024-03-22T03:07:10;36.27;;;20.47;;
19535;SDS011;9913;51.168;4.124;2024-03-22T03:09:38;36.57;;;19.80;;
19535;SDS011;9913;51.168;4.124;2024-03-22T03:12:04;32.47;;;19.60;;
19535;SDS011;9913;51.168;4.124;2024-03-22T03:14:32;36.33;;;19.97;;
19535;SDS011;9913;51.168;4.124;2024-03-22T03:16:59;34.13;;;19.43;;
19535;SDS011;9913;51.168;4.124;2024-03-22T03:19:26;31.23;;;17.37;;
19535;SDS011;9913;51.168;4.124;2024-03-22T03:21:53;32.47;;;18.77;;
19535;SDS011;9913;51.168;4.124;2024-03-22T03:24:20;32.80;;;19.10;;
19535;SDS011;9913;51.168;4.124;2024-03-22T03:26:46;35.37;;;18.53;;
19535;SDS011;9913;51.168;4.124;2024-03-22T03:29:14;34.57;;;20.20;;
19535;SDS011;9913;51.168;4.124;2024-03-22T03:31:40;33.83;;;18.47;;
19535;SDS011;9913;51.168;4.124;2024-03-22T03:34:09;34.17;;;18.27;;
19535;SDS011;9913;51.168;4.124;2024-03-22T03:36:36;28.80;;;16.27;;
19535;SDS011;9913;51.168;4.124;2024-03-22T03:39:03;27.80;;;18.03;;
19535;SDS011;9913;51.168;4.124;2024-03-22T03:41:30;28.07;;;16.63;;
19535;SDS011;9913;51.168;4.124;2024-03-22T03:43:57;24.93;;;14.70;;
19535;SDS011;9913;51.168;4.124;2024-03-22T03:46:23;24.93;;;15.17;;
19535;SDS011;9913;51.168;4.124;2024-03-22T03:48:50;24.83;;;15.37;;
19535;SDS011;9913;51.168;4.124;2024-03-22T03:51:18;23.63;;;14.07;;
19535;SDS011;9913;51.168;4.124;2024-03-22T03:53:45;23.57;;;14.73;;
19535;SDS011;9913;51.168;4.124;2024-03-22T03:56:12;27.10;;;16.37;;
19535;SDS011;9913;51.168;4.124;2024-03-22T03:58:39;24.10;;;14.67;;
19535;SDS011;9913;51.168;4.124;2024-03-22T04:01:05;28.10;;;15.37;;
19535;SDS011;9913;51.168;4.124;2024-03-22T04:03:33;29.20;;;16.53;;
19535;SDS011;9913;51.168;4.124;2024-03-22T04:06:00;19.77;;;12.77;;
19535;SDS011;9913;51.168;4.124;2024-03-22T04:08:29;24.50;;;14.03;;
19535;SDS011;9913;51.168;4.124;2024-03-22T04:10:56;22.83;;;13.83;;
19535;SDS011;9913;51.168;4.124;2024-03-22T04:13:24;23.03;;;14.67;;
19535;SDS011;9913;51.168;4.124;2024-03-22T04:15:50;25.73;;;15.17;;
19535;SDS011;9913;51.168;4.124;2024-03-22T04:18:18;21.40;;;14.50;;
19535;SDS011;9913;51.168;4.124;2024-03-22T04:20:53;24.77;;;14.43;;
19535;SDS011;9913;51.168;4.124;2024-03-22T04:23:21;24.57;;;14.53;;
19535;SDS011;9913;51.168;4.124;2024-03-22T04:25:53;24.80;;;15.43;;
19535;SDS011;9913;51.168;4.124;2024-03-22T04:28:21;24.30;;;14.60;;
19535;SDS011;9913;51.168;4.124;2024-03-22T04:30:54;24.53;;;14.60;;
19535;SDS011;9913;51.168;4.124;2024-03-22T04:33:22;25.57;;;15.73;;
19535;SDS011;9913;51.168;4.124;2024-03-22T04:35:49;26.13;;;16.07;;
19535;SDS011;9913;51.168;4.124;2024-03-22T04:38:17;26.40;;;15.93;;
19535;SDS011;9913;51.168;4.124;2024-03-22T04:40:44;24.33;;;15.17;;
19535;SDS011;9913;51.168;4.124;2024-03-22T04:43:13;23.00;;;13.73;;
19535;SDS011;9913;51.168;4.124;2024-03-22T04:45:41;23.17;;;13.80;;
19535;SDS011;9913;51.168;4.124;2024-03-22T04:48:09;19.97;;;13.33;;
19535;SDS011;9913;51.168;4.124;2024-03-22T04:50:38;24.67;;;15.83;;
19535;SDS011;9913;51.168;4.124;2024-03-22T04:53:06;23.43;;;13.70;;
19535;SDS011;9913;51.168;4.124;2024-03-22T04:55:32;30.00;;;16.60;;
19535;SDS011;9913;51.168;4.124;2024-03-22T04:58:00;29.73;;;16.00;;
19535;SDS011;9913;51.168;4.124;2024-03-22T05:00:28;24.63;;;15.23;;
19535;SDS011;9913;51.168;4.124;2024-03-22T05:02:56;26.50;;;15.77;;
19535;SDS011;9913;51.168;4.124;2024-03-22T05:05:22;24.60;;;15.20;;
19535;SDS011;9913;51.168;4.124;2024-03-22T05:07:49;25.23;;;14.77;;
19535;SDS011;9913;51.168;4.124;2024-03-22T05:10:15;24.37;;;15.00;;
19535;SDS011;9913;51.168;4.124;2024-03-22T05:12:43;22.97;;;14.17;;
19535;SDS011;9913;51.168;4.124;2024-03-22T05:15:09;22.93;;;14.50;;
19535;SDS011;9913;51.168;4.124;2024-03-22T05:17:38;25.13;;;13.63;;
19535;SDS011;9913;51.168;4.124;2024-03-22T05:20:05;25.37;;;14.47;;
19535;SDS011;9913;51.168;4.124;2024-03-22T05:22:36;23.53;;;13.63;;
19535;SDS011;9913;51.168;4.124;2024-03-22T05:25:03;23.00;;;12.80;;
19535;SDS011;9913;51.168;4.124;2024-03-22T05:27:30;24.33;;;15.00;;
19535;SDS011;9913;51.168;4.124;2024-03-22T05:29:58;22.87;;;13.13;;
19535;SDS011;9913;51.168;4.124;2024-03-22T05:32:24;22.90;;;13.30;;
19535;SDS011;9913;51.168;4.124;2024-03-22T05:34:53;24.17;;;13.60;;
19535;SDS011;9913;51.168;4.124;2024-03-22T05:37:19;20.70;;;12.10;;
19535;SDS011;9913;51.168;4.124;2024-03-22T05:39:47;22.60;;;12.93;;
19535;SDS011;9913;51.168;4.124;2024-03-22T05:42:13;20.63;;;13.73;;
19535;SDS011;9913;51.168;4.124;2024-03-22T05:44:40;21.33;;;13.10;;
19535;SDS011;9913;51.168;4.124;2024-03-22T05:47:07;22.77;;;12.73;;
19535;SDS011;9913;51.168;4.124;2024-03-22T05:49:34;23.40;;;13.50;;
19535;SDS011;9913;51.168;4.124;2024-03-22T05:52:02;24.07;;;12.73;;
19535;SDS011;9913;51.168;4.124;2024-03-22T05:54:29;21.53;;;13.47;;
19535;SDS011;9913;51.168;4.124;2024-03-22T05:56:55;23.40;;;13.93;;
19535;SDS011;9913;51.168;4.124;2024-03-22T05:59:22;17.87;;;11.90;;
19535;SDS011;9913;51.168;4.124;2024-03-22T06:01:49;22.47;;;12.83;;
19535;SDS011;9913;51.168;4.124;2024-03-22T06:04:16;21.30;;;13.07;;
19535;SDS011;9913;51.168;4.124;2024-03-22T06:06:42;20.50;;;12.83;;
19535;SDS011;9913;51.168;4.124;2024-03-22T06:09:11;21.60;;;12.60;;
19535;SDS011;9913;51.168;4.124;2024-03-22T06:11:38;25.40;;;13.73;;
19535;SDS011;9913;51.168;4.124;2024-03-22T06:14:09;18.60;;;12.20;;
19535;SDS011;9913;51.168;4.124;2024-03-22T06:16:36;19.87;;;12.37;;
19535;SDS011;9913;51.168;4.124;2024-03-22T06:19:03;23.63;;;12.50;;
19535;SDS011;9913;51.168;4.124;2024-03-22T06:21:30;21.47;;;12.27;;
19535;SDS011;9913;51.168;4.124;2024-03-22T06:23:57;22.47;;;13.43;;
19535;SDS011;9913;51.168;4.124;2024-03-22T06:26:24;20.13;;;12.77;;
19535;SDS011;9913;51.168;4.124;2024-03-22T06:28:52;24.27;;;12.93;;
19535;SDS011;9913;51.168;4.124;2024-03-22T06:31:18;19.83;;;11.80;;
19535;SDS011;9913;51.168;4.124;2024-03-22T06:33:45;21.27;;;12.40;;
19535;SDS011;9913;51.168;4.124;2024-03-22T06:36:11;19.37;;;10.97;;
19535;SDS011;9913;51.168;4.124;2024-03-22T06:38:39;18.53;;;11.53;;
19535;SDS011;9913;51.168;4.124;2024-03-22T06:41:05;16.20;;;10.40;;
19535;SDS011;9913;51.168;4.124;2024-03-22T06:43:34;18.37;;;11.80;;
19535;SDS011;9913;51.168;4.124;2024-03-22T06:46:01;22.00;;;12.27;;
19535;SDS011;9913;51.168;4.124;2024-03-22T06:48:28;18.80;;;11.93;;
19535;SDS011;9913;51.168;4.124;2024-03-22T06:50:54;17.43;;;11.10;;
19535;SDS011;9913;51.168;4.124;2024-03-22T06:53:22;19.27;;;12.57;;
19535;SDS011;9913;51.168;4.124;2024-03-22T06:55:48;16.63;;;11.90;;
19535;SDS011;9913;51.168;4.124;2024-03-22T06:58:15;17.33;;;11.17;;
19535;SDS011;9913;51.168;4.124;2024-03-22T07:00:43;16.57;;;11.33;;
19535;SDS011;9913;51.168;4.124;2024-03-22T07:03:10;15.97;;;10.27;;
19535;SDS011;9913;51.168;4.124;2024-03-22T07:05:36;17.47;;;10.87;;
19535;SDS011;9913;51.168;4.124;2024-03-22T07:08:04;16.80;;;11.03;;
19535;SDS011;9913;51.168;4.124;2024-03-22T07:10:31;14.20;;;9.80;;
19535;SDS011;9913;51.168;4.124;2024-03-22T07:12:59;15.57;;;9.83;;
19535;SDS011;9913;51.168;4.124;2024-03-22T07:15:25;13.87;;;9.03;;
19535;SDS011;9913;51.168;4.124;2024-03-22T07:17:54;12.97;;;9.43;;
19535;SDS011;9913;51.168;4.124;2024-03-22T07:20:21;17.23;;;10.20;;
19535;SDS011;9913;51.168;4.124;2024-03-22T07:22:49;15.13;;;9.40;;
19535;SDS011;9913;51.168;4.124;2024-03-22T07:25:15;14.83;;;9.37;;
19535;SDS011;9913;51.168;4.124;2024-03-22T07:27:42;14.60;;;9.87;;
19535;SDS011;9913;51.168;4.124;2024-03-22T07:30:09;12.67;;;9.03;;
19535;SDS011;9913;51.168;4.124;2024-03-22T07:32:36;16.27;;;9.13;;
19535;SDS011;9913;51.168;4.124;2024-03-22T07:35:05;14.37;;;9.53;;
19535;SDS011;9913;51.168;4.124;2024-03-22T07:37:33;10.63;;;7.67;;
19535;SDS011;9913;51.168;4.124;2024-03-22T07:40:00;11.53;;;7.97;;
19535;SDS011;9913;51.168;4.124;2024-03-22T07:42:27;14.13;;;9.23;;
19535;SDS011;9913;51.168;4.124;2024-03-22T07:44:53;12.30;;;7.57;;
19535;SDS011;9913;51.168;4.124;2024-03-22T07:47:20;13.73;;;8.40;;
19535;SDS011;9913;51.168;4.124;2024-03-22T07:49:47;9.93;;;6.10;;
19535;SDS011;9913;51.168;4.124;2024-03-22T07:52:15;12.03;;;8.07;;
19535;SDS011;9913;51.168;4.124;2024-03-22T07:54:42;13.60;;;8.00;;
19535;SDS011;9913;51.168;4.124;2024-03-22T07:57:09;12.47;;;8.10;;
19535;SDS011;9913;51.168;4.124;2024-03-22T07:59:36;11.07;;;7.43;;
19535;SDS011;9913;51.168;4.124;2024-03-22T08:02:03;11.73;;;7.77;;
19535;SDS011;9913;51.168;4.124;2024-03-22T08:04:30;12.47;;;7.23;;
19535;SDS011;9913;51.168;4.124;2024-03-22T08:06:57;12.70;;;7.73;;
19535;SDS011;9913;51.168;4.124;2024-03-22T08:09:25;14.47;;;7.83;;
19535;SDS011;9913;51.168;4.124;2024-03-22T08:11:52;13.17;;;7.77;;
19535;SDS011;9913;51.168;4.124;2024-03-22T08:14:18;12.07;;;7.97;;
19535;SDS011;9913;51.168;4.124;2024-03-22T08:16:45;11.50;;;8.13;;
19535;SDS011;9913;51.168;4.124;2024-03-22T08:19:12;13.23;;;7.80;;
19535;SDS011;9913;51.168;4.124;2024-03-22T08:21:39;14.37;;;8.13;;
19535;SDS011;9913;51.168;4.124;2024-03-22T08:24:05;12.33;;;8.23;;
19535;SDS011;9913;51.168;4.124;2024-03-22T08:26:34;14.43;;;8.10;;
19535;SDS011;9913;51.168;4.124;2024-03-22T08:29:00;12.63;;;8.10;;
19535;SDS011;9913;51.168;4.124;2024-03-22T08:31:28;13.93;;;8.20;;
19535;SDS011;9913;51.168;4.124;2024-03-22T08:33:54;13.13;;;7.10;;
19535;SDS011;9913;51.168;4.124;2024-03-22T08:36:22;12.63;;;8.20;;
19535;SDS011;9913;51.168;4.124;2024-03-22T08:38:49;11.80;;;8.43;;
19535;SDS011;9913;51.168;4.124;2024-03-22T08:41:16;10.87;;;7.73;;
19535;SDS011;9913;51.168;4.124;2024-03-22T08:43:45;13.63;;;8.40;;
19535;SDS011;9913;51.168;4.124;2024-03-22T08:46:11;12.40;;;8.53;;
19535;SDS011;9913;51.168;4.124;2024-03-22T08:48:38;14.13;;;8.87;;
19535;SDS011;9913;51.168;4.124;2024-03-22T08:51:05;14.90;;;8.33;;
19535;SDS011;9913;51.168;4.124;2024-03-22T08:53:32;14.37;;;8.57;;
19535;SDS011;9913;51.168;4.124;2024-03-22T08:55:58;14.40;;;7.73;;
19535;SDS011;9913;51.168;4.124;2024-03-22T08:58:26;14.40;;;7.57;;
19535;SDS011;9913;51.168;4.124;2024-03-22T09:00:53;12.10;;;7.17;;
19535;SDS011;9913;51.168;4.124;2024-03-22T09:03:20;15.23;;;8.37;;
19535;SDS011;9913;51.168;4.124;2024-03-22T09:05:47;13.80;;;7.60;;
19535;SDS011;9913;51.168;4.124;2024-03-22T09:08:14;14.23;;;7.80;;
19535;SDS011;9913;51.168;4.124;2024-03-22T09:10:41;13.43;;;7.80;;
19535;SDS011;9913;51.168;4.124;2024-03-22T09:13:09;11.97;;;7.47;;
19535;SDS011;9913;51.168;4.124;2024-03-22T09:15:38;12.43;;;7.57;;
19535;SDS011;9913;51.168;4.124;2024-03-22T09:18:06;13.07;;;7.67;;
19535;SDS011;9913;51.168;4.124;2024-03-22T09:20:33;11.60;;;8.33;;
19535;SDS011;9913;51.168;4.124;2024-03-22T09:23:00;14.17;;;7.47;;
19535;SDS011;9913;51.168;4.124;2024-03-22T09:25:27;14.43;;;7.93;;
19535;SDS011;9913;51.168;4.124;2024-03-22T09:27:54;13.77;;;7.93;;
19535;SDS011;9913;51.168;4.124;2024-03-22T09:30:20;15.00;;;8.20;;
19535;SDS011;9913;51.168;4.124;2024-03-22T09:32:48;14.90;;;8.00;;
19535;SDS011;9913;51.168;4.124;2024-03-22T09:35:16;11.37;;;7.57;;
19535;SDS011;9913;51.168;4.124;2024-03-22T09:37:43;12.57;;;6.90;;
19535;SDS011;9913;51.168;4.124;2024-03-22T09:40:10;14.03;;;7.13;;
19535;SDS011;9913;51.168;4.124;2024-03-22T09:42:38;11.90;;;6.93;;
19535;SDS011;9913;51.168;4.124;2024-03-22T09:45:08;10.90;;;6.37;;
19535;SDS011;9913;51.168;4.124;2024-03-22T09:47:36;14.70;;;7.40;;
19535;SDS011;9913;51.168;4.124;2024-03-22T09:50:03;12.37;;;7.27;;
19535;SDS011;9913;51.168;4.124;2024-03-22T09:52:35;9.97;;;6.83;;
19535;SDS011;9913;51.168;4.124;2024-03-22T09:55:04;15.27;;;7.93;;
19535;SDS011;9913;51.168;4.124;2024-03-22T09:57:32;10.87;;;7.63;;
19535;SDS011;9913;51.168;4.124;2024-03-22T10:00:01;12.73;;;7.17;;
19535;SDS011;9913;51.168;4.124;2024-03-22T10:02:37;16.23;;;8.23;;
19535;SDS011;9913;51.168;4.124;2024-03-22T10:05:04;13.17;;;8.03;;
19535;SDS011;9913;51.168;4.124;2024-03-22T10:07:32;17.70;;;7.90;;
19535;SDS011;9913;51.168;4.124;2024-03-22T10:10:00;11.07;;;6.70;;
19535;SDS011;9913;51.168;4.124;2024-03-22T10:12:28;14.63;;;7.30;;
19535;SDS011;9913;51.168;4.124;2024-03-22T10:14:55;14.03;;;8.33;;
19535;SDS011;9913;51.168;4.124;2024-03-22T10:17:22;15.00;;;7.00;;
19535;SDS011;9913;51.168;4.124;2024-03-22T10:19:51;17.13;;;9.00;;
19535;SDS011;9913;51.168;4.124;2024-03-22T10:22:19;10.70;;;6.30;;
19535;SDS011;9913;51.168;4.124;2024-03-22T10:24:46;17.77;;;8.20;;
19535;SDS011;9913;51.168;4.124;2024-03-22T10:27:14;13.57;;;6.77;;
19535;SDS011;9913;51.168;4.124;2024-03-22T10:29:41;13.77;;;7.93;;
19535;SDS011;9913;51.168;4.124;2024-03-22T10:32:08;12.30;;;7.07;;
19535;SDS011;9913;51.168;4.124;2024-03-22T10:34:36;17.30;;;8.80;;
19535;SDS011;9913;51.168;4.124;2024-03-22T10:37:05;12.53;;;7.97;;
19535;SDS011;9913;51.168;4.124;2024-03-22T10:39:34;14.53;;;8.27;;
19535;SDS011;9913;51.168;4.124;2024-03-22T10:42:02;12.70;;;7.30;;
19535;SDS011;9913;51.168;4.124;2024-03-22T10:44:32;12.63;;;7.90;;
19535;SDS011;9913;51.168;4.124;2024-03-22T10:47:01;13.67;;;7.50;;
19535;SDS011;9913;51.168;4.124;2024-03-22T10:49:30;16.17;;;7.40;;
19535;SDS011;9913;51.168;4.124;2024-03-22T10:52:01;14.20;;;7.13;;
19535;SDS011;9913;51.168;4.124;2024-03-22T10:54:30;13.50;;;7.17;;
19535;SDS011;9913;51.168;4.124;2024-03-22T10:57:02;14.47;;;7.77;;
19535;SDS011;9913;51.168;4.124;2024-03-22T10:59:34;12.57;;;7.53;;
19535;SDS011;9913;51.168;4.124;2024-03-22T11:02:05;13.93;;;7.53;;
19535;SDS011;9913;51.168;4.124;2024-03-22T11:04:32;11.90;;;6.97;;
19535;SDS011;9913;51.168;4.124;2024-03-22T11:07:00;13.77;;;6.93;;
19535;SDS011;9913;51.168;4.124;2024-03-22T11:09:29;17.67;;;8.30;;
19535;SDS011;9913;51.168;4.124;2024-03-22T11:11:56;11.57;;;7.57;;
19535;SDS011;9913;51.168;4.124;2024-03-22T11:14:24;15.63;;;8.07;;
19535;SDS011;9913;51.168;4.124;2024-03-22T11:16:53;17.57;;;7.93;;
19535;SDS011;9913;51.168;4.124;2024-03-22T11:19:19;12.70;;;7.60;;
19535;SDS011;9913;51.168;4.124;2024-03-22T11:21:46;14.80;;;7.03;;
19535;SDS011;9913;51.168;4.124;2024-03-22T11:24:13;15.47;;;8.40;;
19535;SDS011;9913;51.168;4.124;2024-03-22T11:26:40;13.70;;;6.90;;
19535;SDS011;9913;51.168;4.124;2024-03-22T11:29:06;14.40;;;8.70;;
19535;SDS011;9913;51.168;4.124;2024-03-22T11:31:35;10.83;;;7.00;;
19535;SDS011;9913;51.168;4.124;2024-03-22T11:34:03;13.40;;;7.03;;
19535;SDS011;9913;51.168;4.124;2024-03-22T11:36:31;14.03;;;7.70;;
19535;SDS011;9913;51.168;4.124;2024-03-22T11:38:57;13.40;;;7.37;;
19535;SDS011;9913;51.168;4.124;2024-03-22T11:41:25;15.63;;;7.23;;
19535;SDS011;9913;51.168;4.124;2024-03-22T11:43:54;10.50;;;6.37;;
19535;SDS011;9913;51.168;4.124;2024-03-22T11:46:24;14.50;;;6.83;;
19535;SDS011;9913;51.168;4.124;2024-03-22T11:48:52;14.53;;;7.83;;
19535;SDS011;9913;51.168;4.124;2024-03-22T11:51:22;14.73;;;7.60;;
19535;SDS011;9913;51.168;4.124;2024-03-22T11:53:48;14.37;;;6.90;;
19535;SDS011;9913;51.168;4.124;2024-03-22T11:56:18;13.47;;;7.80;;
19535;SDS011;9913;51.168;4.124;2024-03-22T11:58:45;11.60;;;6.80;;
19535;SDS011;9913;51.168;4.124;2024-03-22T12:01:14;13.03;;;7.17;;
19535;SDS011;9913;51.168;4.124;2024-03-22T12:03:43;9.30;;;6.63;;
19535;SDS011;9913;51.168;4.124;2024-03-22T12:06:10;12.43;;;6.83;;
19535;SDS011;9913;51.168;4.124;2024-03-22T12:08:38;12.37;;;6.97;;
19535;SDS011;9913;51.168;4.124;2024-03-22T12:11:06;12.33;;;7.07;;
19535;SDS011;9913;51.168;4.124;2024-03-22T12:13:33;10.27;;;6.70;;
19535;SDS011;9913;51.168;4.124;2024-03-22T12:16:01;17.13;;;6.97;;
19535;SDS011;9913;51.168;4.124;2024-03-22T12:18:29;15.47;;;7.23;;
19535;SDS011;9913;51.168;4.124;2024-03-22T12:20:56;12.43;;;7.73;;
19535;SDS011;9913;51.168;4.124;2024-03-22T12:23:23;13.70;;;7.60;;
19535;SDS011;9913;51.168;4.124;2024-03-22T12:25:52;12.63;;;7.57;;
19535;SDS011;9913;51.168;4.124;2024-03-22T12:28:20;15.93;;;8.37;;
19535;SDS011;9913;51.168;4.124;2024-03-22T12:30:48;16.50;;;9.80;;
19535;SDS011;9913;51.168;4.124;2024-03-22T12:33:15;11.33;;;8.80;;
19535;SDS011;9913;51.168;4.124;2024-03-22T12:35:42;14.10;;;9.07;;
19535;SDS011;9913;51.168;4.124;2024-03-22T12:38:09;14.57;;;8.70;;
19535;SDS011;9913;51.168;4.124;2024-03-22T12:40:39;16.40;;;10.13;;
19535;SDS011;9913;51.168;4.124;2024-03-22T12:43:07;18.20;;;10.37;;
19535;SDS011;9913;51.168;4.124;2024-03-22T12:45:36;16.80;;;10.10;;
19535;SDS011;9913;51.168;4.124;2024-03-22T12:48:03;12.27;;;8.77;;
19535;SDS011;9913;51.168;4.124;2024-03-22T12:50:31;16.07;;;9.27;;
19535;SDS011;9913;51.168;4.124;2024-03-22T12:52:59;15.63;;;9.57;;
19535;SDS011;9913;51.168;4.124;2024-03-22T12:55:26;19.63;;;10.80;;
19535;SDS011;9913;51.168;4.124;2024-03-22T12:57:54;15.27;;;8.43;;
19535;SDS011;9913;51.168;4.124;2024-03-22T13:00:22;17.63;;;10.77;;
19535;SDS011;9913;51.168;4.124;2024-03-22T13:02:49;18.10;;;10.23;;
19535;SDS011;9913;51.168;4.124;2024-03-22T13:05:17;19.07;;;10.03;;
19535;SDS011;9913;51.168;4.124;2024-03-22T13:07:44;20.57;;;11.43;;
19535;SDS011;9913;51.168;4.124;2024-03-22T13:10:11;17.97;;;11.87;;
19535;SDS011;9913;51.168;4.124;2024-03-22T13:12:37;17.67;;;11.10;;
19535;SDS011;9913;51.168;4.124;2024-03-22T13:15:05;18.77;;;11.23;;
19535;SDS011;9913;51.168;4.124;2024-03-22T13:17:33;19.80;;;12.87;;
19535;SDS011;9913;51.168;4.124;2024-03-22T13:20:00;21.70;;;11.93;;
19535;SDS011;9913;51.168;4.124;2024-03-22T13:22:26;20.43;;;12.10;;
19535;SDS011;9913;51.168;4.124;2024-03-22T13:24:54;19.40;;;11.47;;
19535;SDS011;9913;51.168;4.124;2024-03-22T13:27:21;19.47;;;12.53;;
19535;SDS011;9913;51.168;4.124;2024-03-22T13:29:51;15.70;;;10.27;;
19535;SDS011;9913;51.168;4.124;2024-03-22T13:32:18;17.10;;;11.53;;
19535;SDS011;9913;51.168;4.124;2024-03-22T13:34:47;18.53;;;11.47;;
19535;SDS011;9913;51.168;4.124;2024-03-22T13:37:13;17.37;;;11.00;;
19535;SDS011;9913;51.168;4.124;2024-03-22T13:39:41;16.83;;;11.83;;
19535;SDS011;9913;51.168;4.124;2024-03-22T13:42:07;18.07;;;11.73;;
19535;SDS011;9913;51.168;4.124;2024-03-22T13:44:35;14.83;;;10.00;;
19535;SDS011;9913;51.168;4.124;2024-03-22T13:47:01;17.33;;;10.73;;
19535;SDS011;9913;51.168;4.124;2024-03-22T13:49:30;16.93;;;10.40;;
19535;SDS011;9913;51.168;4.124;2024-03-22T13:51:59;12.20;;;9.03;;
19535;SDS011;9913;51.168;4.124;2024-03-22T13:54:26;14.90;;;9.83;;
19535;SDS011;9913;51.168;4.124;2024-03-22T13:56:53;21.53;;;12.10;;
19535;SDS011;9913;51.168;4.124;2024-03-22T13:59:20;18.67;;;13.37;;
19535;SDS011;9913;51.168;4.124;2024-03-22T14:01:46;23.57;;;13.40;;
19535;SDS011;9913;51.168;4.124;2024-03-22T14:04:14;16.63;;;12.30;;
19535;SDS011;9913;51.168;4.124;2024-03-22T14:06:40;16.50;;;9.73;;
19535;SDS011;9913;51.168;4.124;2024-03-22T14:09:10;16.30;;;10.00;;
19535;SDS011;9913;51.168;4.124;2024-03-22T14:11:38;13.83;;;9.67;;
19535;SDS011;9913;51.168;4.124;2024-03-22T14:14:08;14.17;;;10.43;;
19535;SDS011;9913;51.168;4.124;2024-03-22T14:16:37;11.57;;;7.90;;
19535;SDS011;9913;51.168;4.124;2024-03-22T14:19:03;13.63;;;7.97;;
19535;SDS011;9913;51.168;4.124;2024-03-22T14:21:31;11.97;;;8.30;;
19535;SDS011;9913;51.168;4.124;2024-03-22T14:23:57;11.13;;;8.00;;
19535;SDS011;9913;51.168;4.124;2024-03-22T14:26:26;12.60;;;9.23;;
19535;SDS011;9913;51.168;4.124;2024-03-22T14:28:53;16.33;;;10.57;;
19535;SDS011;9913;51.168;4.124;2024-03-22T14:31:20;13.83;;;9.97;;
19535;SDS011;9913;51.168;4.124;2024-03-22T14:33:47;16.03;;;11.10;;
19535;SDS011;9913;51.168;4.124;2024-03-22T14:36:15;18.30;;;11.37;;
19535;SDS011;9913;51.168;4.124;2024-03-22T14:38:41;22.37;;;15.73;;
19535;SDS011;9913;51.168;4.124;2024-03-22T14:41:09;19.83;;;13.47;;